Time;durP1;ratioP1;P1;durP2;ratioP2;P2;SDS_P1;SDS_P2;PMS_P1;PMS_P2;Temp;Humidity;BMP_temperature;BMP_pressure;BME280_temperature;BME280_humidity;BME280_pressure;Samples;Min_cycle;Max_cycle;Signal;HPM_P1;HPM_P2
2023/11/22 00:00:07;;;;;;;2.80;2.35;;;;;;;;;;5041622;28;20466;-79
2023/11/22 00:02:33;;;;;;;2.80;2.03;;;;;;;;;;5039787;28;20398;-79
2023/11/22 00:04:59;;;;;;;2.40;2.20;;;;;;;;;;5043120;28;20422;-79
2023/11/22 00:07:28;;;;;;;3.10;2.20;;;;;;;;;;5042261;28;20383;-79
2023/11/22 00:09:54;;;;;;;2.53;2.00;;;;;;;;;;5042722;28;20383;-79
2023/11/22 00:12:20;;;;;;;2.42;1.77;;;;;;;;;;5042662;28;20383;-79
2023/11/22 00:14:47;;;;;;;2.10;1.90;;;;;;;;;;5042639;28;20390;-79
2023/11/22 00:17:13;;;;;;;1.85;1.73;;;;;;;;;;5042609;28;20387;-79
2023/11/22 00:19:40;;;;;;;2.00;1.90;;;;;;;;;;5043000;28;20383;-79
2023/11/22 00:22:11;;;;;;;2.20;2.00;;;;;;;;;;5042297;28;20378;-79
2023/11/22 00:24:37;;;;;;;2.15;2.00;;;;;;;;;;5042121;28;20474;-79
2023/11/22 00:27:03;;;;;;;2.33;2.10;;;;;;;;;;5041197;28;20410;-79
2023/11/22 00:29:32;;;;;;;3.08;2.30;;;;;;;;;;5042263;28;20753;-80
2023/11/22 00:31:58;;;;;;;3.00;2.08;;;;;;;;;;5041739;28;20833;-79
2023/11/22 00:34:24;;;;;;;2.67;2.20;;;;;;;;;;5042427;28;20433;-79
2023/11/22 00:36:50;;;;;;;2.40;2.20;;;;;;;;;;5042416;28;20422;-79
2023/11/22 00:39:17;;;;;;;2.15;1.95;;;;;;;;;;5042259;28;20391;-79
2023/11/22 00:41:44;;;;;;;1.92;1.80;;;;;;;;;;5041966;28;20391;-79
2023/11/22 00:44:10;;;;;;;2.22;1.90;;;;;;;;;;5041918;28;20462;-79
2023/11/22 00:46:39;;;;;;;3.10;2.22;;;;;;;;;;5042428;28;20395;-79
2023/11/22 00:49:05;;;;;;;2.20;1.77;;;;;;;;;;5041828;28;20849;-79
2023/11/22 00:51:34;;;;;;;1.98;1.77;;;;;;;;;;5041846;28;20406;-79
2023/11/22 00:54:00;;;;;;;4.00;1.98;;;;;;;;;;5040801;28;20391;-79
2023/11/22 00:56:26;;;;;;;2.00;1.80;;;;;;;;;;5039990;28;20411;-79
2023/11/22 00:58:53;;;;;;;2.28;1.70;;;;;;;;;;5042140;28;20738;-79
2023/11/22 01:01:22;;;;;;;2.20;1.80;;;;;;;;;;5041605;28;20383;-79
2023/11/22 01:03:48;;;;;;;2.20;2.00;;;;;;;;;;5037937;28;20378;-79
2023/11/22 01:06:14;;;;;;;2.33;2.10;;;;;;;;;;5041708;28;20427;-79
2023/11/22 01:08:40;;;;;;;2.17;2.00;;;;;;;;;;5042576;28;20383;-79
2023/11/22 01:11:07;;;;;;;2.35;2.15;;;;;;;;;;5041558;28;21258;-79
2023/11/22 01:13:40;;;;;;;3.03;2.42;;;;;;;;;;5042024;28;20383;-79
2023/11/22 01:16:06;;;;;;;2.53;2.05;;;;;;;;;;5042478;28;20403;-79
2023/11/22 01:18:32;;;;;;;2.05;1.88;;;;;;;;;;5022790;28;20434;-79
2023/11/22 01:20:58;;;;;;;4.03;2.40;;;;;;;;;;5024016;28;20379;-79
2023/11/22 01:23:24;;;;;;;2.55;2.35;;;;;;;;;;5040843;28;20853;-79
2023/11/22 01:25:50;;;;;;;2.17;1.98;;;;;;;;;;5042063;28;20568;-79
2023/11/22 01:28:17;;;;;;;2.72;2.10;;;;;;;;;;5041808;28;20379;-79
2023/11/22 01:30:45;;;;;;;2.40;2.20;;;;;;;;;;5042161;28;20393;-79
2023/11/22 01:33:11;;;;;;;2.40;2.15;;;;;;;;;;5041377;28;20748;-79
2023/11/22 01:35:38;;;;;;;2.00;1.90;;;;;;;;;;5042938;28;20379;-79
2023/11/22 01:38:04;;;;;;;2.72;2.35;;;;;;;;;;5041715;28;20390;-79
2023/11/22 01:40:30;;;;;;;2.50;2.30;;;;;;;;;;5041949;28;20371;-79
2023/11/22 01:42:56;;;;;;;3.20;2.30;;;;;;;;;;5042139;28;20391;-79
2023/11/22 01:45:22;;;;;;;2.47;2.17;;;;;;;;;;5042628;28;20422;-79
2023/11/22 01:47:48;;;;;;;2.50;2.30;;;;;;;;;;5042549;28;20395;-79
2023/11/22 01:50:14;;;;;;;2.40;2.05;;;;;;;;;;5042203;28;20446;-79
2023/11/22 01:52:41;;;;;;;2.50;2.10;;;;;;;;;;5042091;28;20383;-79
2023/11/22 01:55:09;;;;;;;3.15;2.60;;;;;;;;;;5041255;28;20372;-80
2023/11/22 01:57:35;;;;;;;2.53;2.33;;;;;;;;;;5040112;28;20395;-79
2023/11/22 02:00:03;;;;;;;3.90;2.20;;;;;;;;;;5042092;28;20390;-80
2023/11/22 02:02:30;;;;;;;3.10;2.30;;;;;;;;;;5042528;28;20528;-79
2023/11/22 02:04:56;;;;;;;2.53;2.25;;;;;;;;;;5039270;28;20873;-79
2023/11/22 02:07:22;;;;;;;2.20;2.03;;;;;;;;;;5045605;28;20395;-79
2023/11/22 02:09:49;;;;;;;2.65;2.30;;;;;;;;;;5044573;28;20394;-79
2023/11/22 02:12:15;;;;;;;2.65;2.10;;;;;;;;;;5045033;28;20379;-79
2023/11/22 02:14:41;;;;;;;2.95;2.13;;;;;;;;;;5046254;28;20401;-79
2023/11/22 02:17:07;;;;;;;3.13;2.42;;;;;;;;;;5045120;28;20422;-80
2023/11/22 02:19:33;;;;;;;2.70;2.50;;;;;;;;;;5045515;28;20383;-79
2023/11/22 02:21:59;;;;;;;2.80;2.60;;;;;;;;;;5044715;28;20383;-79
2023/11/22 02:24:26;;;;;;;2.80;2.50;;;;;;;;;;5045145;28;20419;-79
2023/11/22 02:26:52;;;;;;;3.42;3.08;;;;;;;;;;5045485;28;20383;-79
2023/11/22 02:29:18;;;;;;;3.08;2.75;;;;;;;;;;5045259;28;20445;-79
2023/11/22 02:31:44;;;;;;;3.60;2.60;;;;;;;;;;5045295;28;20410;-79
2023/11/22 02:34:11;;;;;;;3.20;2.90;;;;;;;;;;5044932;28;20983;-80
2023/11/22 02:36:37;;;;;;;2.80;2.60;;;;;;;;;;5045272;28;20395;-79
2023/11/22 02:39:03;;;;;;;3.08;2.88;;;;;;;;;;5044824;28;20402;-79
2023/11/22 02:41:32;;;;;;;3.35;2.90;;;;;;;;;;5027104;28;20459;-79
2023/11/22 02:43:58;;;;;;;2.80;2.60;;;;;;;;;;5044344;28;20387;-79
2023/11/22 02:46:24;;;;;;;3.70;2.42;;;;;;;;;;5045054;28;20403;-79
2023/11/22 02:48:50;;;;;;;2.63;2.42;;;;;;;;;;5044566;28;20427;-79
2023/11/22 02:51:16;;;;;;;2.80;2.40;;;;;;;;;;5044905;28;20383;-80
2023/11/22 02:53:45;;;;;;;3.00;2.70;;;;;;;;;;5044532;28;20884;-79
2023/11/22 02:56:11;;;;;;;3.00;2.70;;;;;;;;;;5045130;28;20383;-79
2023/11/22 02:58:37;;;;;;;2.67;2.47;;;;;;;;;;5044562;28;20415;-79
2023/11/22 03:01:03;;;;;;;3.03;2.58;;;;;;;;;;5045326;28;20383;-80
2023/11/22 03:03:29;;;;;;;2.92;2.40;;;;;;;;;;5040239;28;20467;-79
2023/11/22 03:05:55;;;;;;;2.90;2.40;;;;;;;;;;5025686;28;20435;-79
2023/11/22 03:08:21;;;;;;;3.10;2.30;;;;;;;;;;5025958;28;20384;-79
2023/11/22 03:10:47;;;;;;;4.30;2.90;;;;;;;;;;5025682;28;20436;-79
2023/11/22 03:13:13;;;;;;;3.53;2.38;;;;;;;;;;5024783;28;20392;-79
2023/11/22 03:15:39;;;;;;;2.40;1.90;;;;;;;;;;5024298;28;20460;-79
2023/11/22 03:18:06;;;;;;;1.98;1.85;;;;;;;;;;5023797;28;20396;-81
2023/11/22 03:20:32;;;;;;;2.42;2.00;;;;;;;;;;5021325;28;20408;-80
2023/11/22 03:22:58;;;;;;;1.92;1.77;;;;;;;;;;5024097;28;20409;-80
2023/11/22 03:25:24;;;;;;;2.97;2.17;;;;;;;;;;5024171;28;20416;-80
2023/11/22 03:27:51;;;;;;;2.30;2.10;;;;;;;;;;5023507;28;20389;-80
2023/11/22 03:30:17;;;;;;;2.50;2.10;;;;;;;;;;5024363;28;20393;-80
2023/11/22 03:32:44;;;;;;;1.92;1.83;;;;;;;;;;5024029;28;20392;-80
2023/11/22 03:35:10;;;;;;;2.63;2.17;;;;;;;;;;5024700;28;20704;-80
2023/11/22 03:37:37;;;;;;;1.77;1.67;;;;;;;;;;5024918;28;20419;-80
2023/11/22 03:40:03;;;;;;;2.38;2.17;;;;;;;;;;5022373;28;20420;-80
2023/11/22 03:42:29;;;;;;;2.50;2.30;;;;;;;;;;5024304;28;20397;-80
2023/11/22 03:44:55;;;;;;;2.63;2.42;;;;;;;;;;5034702;28;20400;-80
2023/11/22 03:47:22;;;;;;;3.05;2.70;;;;;;;;;;5033475;28;20397;-80
2023/11/22 03:49:48;;;;;;;3.63;2.67;;;;;;;;;;5026548;28;20396;-80
2023/11/22 03:52:14;;;;;;;2.67;2.47;;;;;;;;;;5020648;28;20392;-80
2023/11/22 03:54:40;;;;;;;2.83;2.40;;;;;;;;;;5034989;28;20384;-80
2023/11/22 03:57:06;;;;;;;2.83;2.40;;;;;;;;;;5043436;28;20398;-80
2023/11/22 03:59:35;;;;;;;2.60;2.40;;;;;;;;;;5043991;28;20486;-80
2023/11/22 04:02:01;;;;;;;3.05;2.80;;;;;;;;;;5043664;28;20445;-80
2023/11/22 04:04:27;;;;;;;3.50;3.20;;;;;;;;;;5042082;28;20441;-80
2023/11/22 04:06:53;;;;;;;3.40;3.17;;;;;;;;;;5041845;28;20900;-80
2023/11/22 04:09:20;;;;;;;3.60;3.30;;;;;;;;;;5022636;28;20398;-80
2023/11/22 04:11:47;;;;;;;4.45;4.05;;;;;;;;;;5044028;28;20468;-80
2023/11/22 04:14:13;;;;;;;3.47;2.97;;;;;;;;;;5040230;28;20390;-80
2023/11/22 04:16:39;;;;;;;3.70;3.30;;;;;;;;;;5042752;28;20470;-80
2023/11/22 04:19:05;;;;;;;3.83;3.40;;;;;;;;;;5042958;28;20392;-80
2023/11/22 04:21:31;;;;;;;3.65;3.35;;;;;;;;;;5043546;28;20410;-80
2023/11/22 04:23:57;;;;;;;6.65;2.83;;;;;;;;;;5042370;28;20540;-80
2023/11/22 04:26:24;;;;;;;3.90;3.00;;;;;;;;;;5042824;28;20450;-80
2023/11/22 04:28:50;;;;;;;4.57;3.45;;;;;;;;;;5041959;28;20383;-80
2023/11/22 04:31:17;;;;;;;3.67;3.38;;;;;;;;;;5043305;28;20390;-80
2023/11/22 04:33:43;;;;;;;4.05;3.65;;;;;;;;;;5041344;28;20379;-80
2023/11/22 04:36:09;;;;;;;3.50;3.20;;;;;;;;;;5043340;28;20436;-80
2023/11/22 04:38:35;;;;;;;3.33;3.03;;;;;;;;;;5042935;28;20439;-80
2023/11/22 04:41:01;;;;;;;4.55;3.50;;;;;;;;;;5043105;28;20415;-80
2023/11/22 04:43:27;;;;;;;4.20;3.80;;;;;;;;;;5042099;28;20454;-80
2023/11/22 04:45:53;;;;;;;3.80;3.45;;;;;;;;;;5041476;28;20489;-80
2023/11/22 04:48:19;;;;;;;3.83;3.15;;;;;;;;;;5043027;28;20383;-80
2023/11/22 04:50:45;;;;;;;3.75;3.35;;;;;;;;;;5042500;28;20395;-80
2023/11/22 04:53:11;;;;;;;3.42;3.13;;;;;;;;;;5043217;28;20386;-80
2023/11/22 04:55:37;;;;;;;3.70;3.40;;;;;;;;;;5041956;28;20394;-80
2023/11/22 04:58:03;;;;;;;3.83;3.53;;;;;;;;;;5033109;28;20614;-80
2023/11/22 05:00:29;;;;;;;3.97;3.67;;;;;;;;;;5022171;28;20389;-80
2023/11/22 05:02:55;;;;;;;4.13;3.45;;;;;;;;;;5021976;28;20388;-80
2023/11/22 05:05:24;;;;;;;3.63;3.33;;;;;;;;;;5022588;28;20443;-80
2023/11/22 05:07:50;;;;;;;3.70;3.40;;;;;;;;;;5023060;28;20400;-80
2023/11/22 05:10:17;;;;;;;4.28;3.92;;;;;;;;;;5022485;28;20467;-80
2023/11/22 05:12:44;;;;;;;4.30;3.90;;;;;;;;;;5022388;28;20747;-80
2023/11/22 05:15:11;;;;;;;3.10;2.80;;;;;;;;;;5021844;28;20389;-80
2023/11/22 05:17:37;;;;;;;2.33;1.92;;;;;;;;;;5021847;28;20401;-80
2023/11/22 05:20:04;;;;;;;1.20;1.10;;;;;;;;;;5022227;28;20396;-80
2023/11/22 05:22:30;;;;;;;0.70;0.70;;;;;;;;;;5022192;28;20389;-80
2023/11/22 05:24:56;;;;;;;0.68;0.68;;;;;;;;;;5022377;28;20428;-80
2023/11/22 05:27:22;;;;;;;0.60;0.60;;;;;;;;;;5023126;28;20739;-80
2023/11/22 05:29:48;;;;;;;0.85;0.40;;;;;;;;;;5022949;28;20396;-80
2023/11/22 05:32:14;;;;;;;0.52;0.45;;;;;;;;;;5022004;28;20385;-80
2023/11/22 05:34:40;;;;;;;0.50;0.40;;;;;;;;;;5022224;28;20438;-80
2023/11/22 05:37:06;;;;;;;0.98;0.40;;;;;;;;;;5021923;28;20750;-80
2023/11/22 05:39:32;;;;;;;0.43;0.30;;;;;;;;;;5022729;28;20716;-80
2023/11/22 05:41:58;;;;;;;0.20;0.20;;;;;;;;;;5025435;28;20516;-80
2023/11/22 05:44:25;;;;;;;0.30;0.30;;;;;;;;;;5025246;28;20412;-80
2023/11/22 05:46:51;;;;;;;0.65;0.30;;;;;;;;;;5026028;28;20380;-80
2023/11/22 05:49:17;;;;;;;0.30;0.30;;;;;;;;;;5025919;28;20411;-80
2023/11/22 05:51:43;;;;;;;0.20;0.20;;;;;;;;;;5025731;28;20389;-80
2023/11/22 05:54:12;;;;;;;0.45;0.40;;;;;;;;;;5025959;28;20395;-80
2023/11/22 05:56:38;;;;;;;1.02;0.30;;;;;;;;;;5025457;28;20384;-80
2023/11/22 05:59:04;;;;;;;0.20;0.20;;;;;;;;;;5041355;28;20387;-80
2023/11/22 06:01:30;;;;;;;0.30;0.20;;;;;;;;;;5044989;28;20420;-80
2023/11/22 06:03:56;;;;;;;0.50;0.20;;;;;;;;;;5046680;28;20434;-80
2023/11/22 06:06:22;;;;;;;0.30;0.30;;;;;;;;;;5045326;28;20406;-80
2023/11/22 06:08:48;;;;;;;0.38;0.20;;;;;;;;;;5046938;28;20447;-80
2023/11/22 06:11:15;;;;;;;0.40;0.40;;;;;;;;;;5044582;28;20455;-80
2023/11/22 06:13:42;;;;;;;0.40;0.40;;;;;;;;;;5038348;28;20387;-80
2023/11/22 06:16:09;;;;;;;0.50;0.50;;;;;;;;;;5044697;28;20383;-80
2023/11/22 06:18:40;;;;;;;0.50;0.50;;;;;;;;;;5043363;28;20474;-80
2023/11/22 06:21:06;;;;;;;0.90;0.60;;;;;;;;;;5041525;28;20383;-80
2023/11/22 06:23:32;;;;;;;1.08;0.50;;;;;;;;;;5043401;28;20410;-80
2023/11/22 06:25:58;;;;;;;0.70;0.70;;;;;;;;;;5044627;28;20414;-80
2023/11/22 06:28:24;;;;;;;0.70;0.70;;;;;;;;;;5043941;28;20383;-80
2023/11/22 06:30:50;;;;;;;0.70;0.70;;;;;;;;;;5044867;28;20383;-80
2023/11/22 06:33:16;;;;;;;0.80;0.80;;;;;;;;;;5044464;28;20837;-80
2023/11/22 06:35:42;;;;;;;1.00;1.00;;;;;;;;;;5044409;28;20413;-80
2023/11/22 06:38:09;;;;;;;0.70;0.70;;;;;;;;;;5044117;28;20871;-80
2023/11/22 06:40:35;;;;;;;0.70;0.70;;;;;;;;;;5045052;28;20433;-80
2023/11/22 06:43:04;;;;;;;0.70;0.70;;;;;;;;;;5044125;28;20729;-80
2023/11/22 06:45:31;;;;;;;0.98;0.90;;;;;;;;;;5044578;28;20419;-80
2023/11/22 06:47:57;;;;;;;0.80;0.80;;;;;;;;;;5045645;28;20387;-80
2023/11/22 06:50:24;;;;;;;1.00;1.00;;;;;;;;;;5045392;28;20451;-80
2023/11/22 06:52:52;;;;;;;1.20;1.10;;;;;;;;;;5044265;28;20384;-80
2023/11/22 06:55:18;;;;;;;1.27;1.17;;;;;;;;;;5045324;28;20857;-80
2023/11/22 06:57:44;;;;;;;1.27;1.17;;;;;;;;;;5044904;28;20406;-80
2023/11/22 07:00:12;;;;;;;1.20;1.10;;;;;;;;;;5043530;28;20380;-81
2023/11/22 07:02:38;;;;;;;1.23;1.13;;;;;;;;;;5043017;28;20444;-81
2023/11/22 07:05:08;;;;;;;0.95;0.90;;;;;;;;;;5040794;28;20410;-80
2023/11/22 07:07:35;;;;;;;0.90;0.90;;;;;;;;;;5030766;28;20397;-80
2023/11/22 07:10:01;;;;;;;1.10;1.00;;;;;;;;;;5023145;28;20545;-81
2023/11/22 07:12:27;;;;;;;1.10;1.00;;;;;;;;;;5024114;28;20437;-80
2023/11/22 07:14:53;;;;;;;1.10;1.00;;;;;;;;;;5022127;28;20790;-79
2023/11/22 07:17:21;;;;;;;1.50;1.00;;;;;;;;;;5024583;28;20393;-80
2023/11/22 07:19:48;;;;;;;0.90;0.90;;;;;;;;;;5023693;28;20399;-79
2023/11/22 07:22:19;;;;;;;1.02;1.02;;;;;;;;;;5023705;28;20400;-79
2023/11/22 07:24:45;;;;;;;1.20;0.93;;;;;;;;;;5035358;28;20433;-79
2023/11/22 07:27:14;;;;;;;0.80;0.80;;;;;;;;;;5043126;28;20478;-79
2023/11/22 07:29:44;;;;;;;1.80;1.17;;;;;;;;;;5042896;28;20407;-79
2023/11/22 07:32:10;;;;;;;1.25;1.15;;;;;;;;;;5044059;28;20398;-80
2023/11/22 07:34:37;;;;;;;1.00;1.00;;;;;;;;;;5043585;28;20383;-80
2023/11/22 07:37:03;;;;;;;0.90;0.90;;;;;;;;;;5044479;28;20841;-79
2023/11/22 07:39:29;;;;;;;0.70;0.70;;;;;;;;;;5040826;28;20447;-81
2023/11/22 07:41:56;;;;;;;0.60;0.60;;;;;;;;;;5043469;28;20922;-79
2023/11/22 07:44:24;;;;;;;0.70;0.70;;;;;;;;;;5043154;28;21001;-79
2023/11/22 07:46:51;;;;;;;1.20;0.60;;;;;;;;;;5042404;28;20402;-79
2023/11/22 07:49:17;;;;;;;0.68;0.68;;;;;;;;;;5043777;28;20447;-79
2023/11/22 07:51:47;;;;;;;0.85;0.70;;;;;;;;;;5042475;28;20383;-80
2023/11/22 07:54:15;;;;;;;0.80;0.80;;;;;;;;;;5040574;28;20385;-80
2023/11/22 07:56:43;;;;;;;0.68;0.50;;;;;;;;;;5043058;28;20455;-79
2023/11/22 07:59:10;;;;;;;0.57;0.55;;;;;;;;;;5043182;28;20451;-79
2023/11/22 08:01:36;;;;;;;0.60;0.60;;;;;;;;;;5042608;28;20420;-79
2023/11/22 08:04:02;;;;;;;0.50;0.50;;;;;;;;;;5042463;28;20399;-79
2023/11/22 08:06:29;;;;;;;0.70;0.60;;;;;;;;;;5040775;28;20401;-79
2023/11/22 08:08:55;;;;;;;1.10;0.50;;;;;;;;;;5043000;28;20866;-80
2023/11/22 08:11:21;;;;;;;0.60;0.60;;;;;;;;;;5040985;28;20399;-80
2023/11/22 08:13:47;;;;;;;0.50;0.50;;;;;;;;;;5037970;28;20551;-80
2023/11/22 08:16:14;;;;;;;0.80;0.70;;;;;;;;;;5043489;28;20502;-80
2023/11/22 08:18:42;;;;;;;0.80;0.80;;;;;;;;;;5041645;28;20387;-79
2023/11/22 08:21:08;;;;;;;0.60;0.60;;;;;;;;;;5033761;28;20395;-80
2023/11/22 08:23:34;;;;;;;0.60;0.60;;;;;;;;;;5037443;28;20434;-80
2023/11/22 08:26:01;;;;;;;0.60;0.60;;;;;;;;;;5036597;28;20746;-80
2023/11/22 08:28:28;;;;;;;0.68;0.68;;;;;;;;;;5037737;28;20492;-80
2023/11/22 08:30:55;;;;;;;0.70;0.70;;;;;;;;;;5036576;28;20371;-80
2023/11/22 08:33:22;;;;;;;0.70;0.70;;;;;;;;;;5038255;28;20387;-80
2023/11/22 08:35:51;;;;;;;0.75;0.70;;;;;;;;;;5037231;28;20387;-80
2023/11/22 08:38:19;;;;;;;0.65;0.65;;;;;;;;;;5037855;28;20857;-79
2023/11/22 08:40:45;;;;;;;0.83;0.70;;;;;;;;;;5037299;28;20411;-80
2023/11/22 08:43:11;;;;;;;0.88;0.70;;;;;;;;;;5037249;28;20375;-79
2023/11/22 08:45:37;;;;;;;0.85;0.80;;;;;;;;;;5036519;28;20425;-79
2023/11/22 08:48:03;;;;;;;1.00;0.80;;;;;;;;;;5035347;28;20399;-79
2023/11/22 08:50:29;;;;;;;0.95;0.60;;;;;;;;;;5035956;28;20379;-79
2023/11/22 08:52:57;;;;;;;0.65;0.65;;;;;;;;;;5035668;28;20383;-79
2023/11/22 08:55:26;;;;;;;0.75;0.70;;;;;;;;;;5035751;28;20371;-79
2023/11/22 08:57:52;;;;;;;0.95;0.80;;;;;;;;;;5035684;28;20875;-80
2023/11/22 09:00:28;;;;;;;1.30;1.20;;;;;;;;;;5034937;28;20458;-79
2023/11/22 09:02:57;;;;;;;1.38;0.73;;;;;;;;;;5034732;28;20387;-79
2023/11/22 09:05:23;;;;;;;0.70;0.70;;;;;;;;;;5034542;28;20426;-79
2023/11/22 09:07:50;;;;;;;1.10;0.90;;;;;;;;;;5035384;28;20386;-80
2023/11/22 09:10:18;;;;;;;1.10;1.00;;;;;;;;;;5035619;28;20406;-79
2023/11/22 09:12:44;;;;;;;1.10;1.00;;;;;;;;;;5036126;28;20390;-79
2023/11/22 09:15:12;;;;;;;1.15;1.05;;;;;;;;;;5027142;28;20451;-79
2023/11/22 09:17:43;;;;;;;1.52;1.42;;;;;;;;;;5022372;28;20399;-79
2023/11/22 09:20:11;;;;;;;1.20;1.10;;;;;;;;;;5022442;28;20392;-80
2023/11/22 09:22:39;;;;;;;1.13;1.03;;;;;;;;;;5022388;28;20388;-79
2023/11/22 09:25:09;;;;;;;1.20;1.10;;;;;;;;;;5021791;28;20422;-79
2023/11/22 09:27:36;;;;;;;1.30;1.00;;;;;;;;;;5021999;28;20412;-79
2023/11/22 09:30:03;;;;;;;1.43;1.33;;;;;;;;;;5022141;28;20489;-79
2023/11/22 09:32:29;;;;;;;2.58;2.38;;;;;;;;;;5022055;28;20388;-79
2023/11/22 09:34:57;;;;;;;3.83;2.50;;;;;;;;;;5022457;28;20388;-79
2023/11/22 09:37:25;;;;;;;3.63;3.20;;;;;;;;;;5022121;28;20759;-79
2023/11/22 09:39:51;;;;;;;1.83;1.38;;;;;;;;;;5022136;28;20408;-79
2023/11/22 09:42:17;;;;;;;2.20;2.00;;;;;;;;;;5022115;28;20476;-79
2023/11/22 09:44:43;;;;;;;1.13;1.02;;;;;;;;;;5022465;28;20448;-79
2023/11/22 09:47:12;;;;;;;1.27;1.15;;;;;;;;;;5022201;28;20442;-79
2023/11/22 09:49:40;;;;;;;2.70;2.03;;;;;;;;;;5021720;28;20798;-79
2023/11/22 09:52:10;;;;;;;3.28;2.97;;;;;;;;;;5021871;28;20463;-79
2023/11/22 09:54:37;;;;;;;2.00;1.80;;;;;;;;;;5022037;28;20452;-79
2023/11/22 09:57:08;;;;;;;2.92;2.63;;;;;;;;;;5022786;28;20395;-79
2023/11/22 09:59:35;;;;;;;2.97;2.67;;;;;;;;;;5041713;28;20385;-79
2023/11/22 10:02:01;;;;;;;1.30;1.20;;;;;;;;;;5042166;28;20452;-79
2023/11/22 10:04:28;;;;;;;15.77;11.13;;;;;;;;;;5041949;28;20410;-79
2023/11/22 10:06:55;;;;;;;5.37;4.20;;;;;;;;;;5042089;28;20399;-79
2023/11/22 10:09:24;;;;;;;4.50;4.10;;;;;;;;;;5041791;28;20441;-79
2023/11/22 10:11:50;;;;;;;2.30;2.10;;;;;;;;;;5042085;28;20410;-80
2023/11/22 10:14:25;;;;;;;1.85;1.75;;;;;;;;;;5042571;28;20442;-79
2023/11/22 10:16:58;;;;;;;1.35;1.25;;;;;;;;;;5038442;28;20445;-79
2023/11/22 10:19:25;;;;;;;1.83;1.40;;;;;;;;;;5042611;28;20387;-79
2023/11/22 10:22:02;;;;;;;1.30;1.20;;;;;;;;;;5042344;28;21162;-79
2023/11/22 10:24:32;;;;;;;1.10;1.00;;;;;;;;;;5042453;28;20430;-79
2023/11/22 10:26:59;;;;;;;1.65;1.30;;;;;;;;;;5040451;28;20402;-79
2023/11/22 10:29:25;;;;;;;1.90;1.20;;;;;;;;;;5035130;28;20376;-79
2023/11/22 10:31:52;;;;;;;1.38;1.10;;;;;;;;;;5028256;28;20387;-79
2023/11/22 10:34:24;;;;;;;1.13;0.90;;;;;;;;;;5028152;28;20421;-79
2023/11/22 10:36:50;;;;;;;0.98;0.90;;;;;;;;;;5036830;28;20865;-79
2023/11/22 10:39:19;;;;;;;0.90;0.90;;;;;;;;;;5031640;28;20396;-79
2023/11/22 10:41:46;;;;;;;1.20;0.90;;;;;;;;;;5036018;28;20403;-79
2023/11/22 10:44:12;;;;;;;0.75;0.70;;;;;;;;;;5043123;28;20387;-79
2023/11/22 10:46:41;;;;;;;1.10;1.00;;;;;;;;;;5041981;28;20421;-79
2023/11/22 10:49:07;;;;;;;2.30;2.10;;;;;;;;;;5039569;28;20396;-79
2023/11/22 10:51:34;;;;;;;1.50;1.10;;;;;;;;;;5023827;28;20802;-79
2023/11/22 10:54:03;;;;;;;1.00;1.00;;;;;;;;;;5023694;28;20388;-79
2023/11/22 10:56:31;;;;;;;0.90;0.90;;;;;;;;;;5023866;28;20396;-79
2023/11/22 10:58:57;;;;;;;3.60;2.20;;;;;;;;;;5023642;28;20449;-79
2023/11/22 11:01:31;;;;;;;2.25;2.05;;;;;;;;;;5035671;28;20383;-80
2023/11/22 11:04:06;;;;;;;0.82;0.82;;;;;;;;;;5043047;28;20879;-79
2023/11/22 11:06:33;;;;;;;3.28;2.95;;;;;;;;;;5025289;28;20408;-80
2023/11/22 11:09:00;;;;;;;2.40;2.13;;;;;;;;;;5033695;28;20462;-80
2023/11/22 11:11:28;;;;;;;2.13;1.92;;;;;;;;;;5043736;28;20447;-80
2023/11/22 11:13:54;;;;;;;1.65;1.35;;;;;;;;;;5043738;28;20479;-80
2023/11/22 11:16:21;;;;;;;3.65;3.05;;;;;;;;;;5043787;28;20396;-80
2023/11/22 11:18:47;;;;;;;3.45;2.83;;;;;;;;;;5035786;28;21173;-80
2023/11/22 11:21:15;;;;;;;1.60;1.50;;;;;;;;;;5044321;28;20390;-79
2023/11/22 11:23:44;;;;;;;3.13;1.40;;;;;;;;;;5043208;28;20387;-80
2023/11/22 11:26:16;;;;;;;1.95;1.20;;;;;;;;;;5042729;28;20454;-80
2023/11/22 11:28:47;;;;;;;1.95;1.13;;;;;;;;;;5039256;28;20756;-80
2023/11/22 11:31:14;;;;;;;1.80;1.70;;;;;;;;;;5042338;28;20764;-79
2023/11/22 11:33:49;;;;;;;1.50;1.40;;;;;;;;;;5042432;28;20399;-79
2023/11/22 11:36:32;;;;;;;1.30;1.20;;;;;;;;;;5037130;28;20861;-79
2023/11/22 11:39:01;;;;;;;1.08;1.00;;;;;;;;;;5040873;28;20390;-79
2023/11/22 11:41:28;;;;;;;1.90;0.98;;;;;;;;;;5042848;28;20387;-79
2023/11/22 11:43:56;;;;;;;1.95;1.80;;;;;;;;;;5042908;28;20429;-79
2023/11/22 11:46:32;;;;;;;2.53;2.15;;;;;;;;;;5043011;28;20433;-79
2023/11/22 11:48:59;;;;;;;1.42;1.33;;;;;;;;;;5042845;28;20737;-79
2023/11/22 11:51:26;;;;;;;2.40;2.20;;;;;;;;;;5042627;28;20383;-79
2023/11/22 11:53:52;;;;;;;1.60;1.20;;;;;;;;;;5042739;28;20399;-79
2023/11/22 11:56:18;;;;;;;2.10;1.67;;;;;;;;;;5042436;28;20414;-79
2023/11/22 11:58:54;;;;;;;1.17;1.08;;;;;;;;;;5028213;28;20456;-79
2023/11/22 12:01:21;;;;;;;2.40;2.20;;;;;;;;;;5023717;28;20396;-80
2023/11/22 12:03:47;;;;;;;1.63;1.52;;;;;;;;;;5005027;28;20455;-79
2023/11/22 12:06:17;;;;;;;2.30;2.10;;;;;;;;;;5019056;28;20416;-79
2023/11/22 12:08:43;;;;;;;3.63;3.30;;;;;;;;;;5041950;28;20399;-79
2023/11/22 12:11:10;;;;;;;5.45;4.38;;;;;;;;;;5041886;28;20394;-80
2023/11/22 12:13:43;;;;;;;1.90;1.80;;;;;;;;;;5041194;28;20384;-79
2023/11/22 12:16:11;;;;;;;1.63;1.52;;;;;;;;;;5038824;28;20383;-79
2023/11/22 12:18:45;;;;;;;1.60;1.42;;;;;;;;;;5036898;28;20379;-80
2023/11/22 12:21:12;;;;;;;1.40;1.30;;;;;;;;;;5022573;28;20480;-80
2023/11/22 12:23:39;;;;;;;1.60;1.50;;;;;;;;;;5030840;28;20379;-80
2023/11/22 12:26:05;;;;;;;2.40;2.20;;;;;;;;;;5040235;28;20425;-79
2023/11/22 12:28:33;;;;;;;1.80;1.70;;;;;;;;;;5039148;28;20383;-79
2023/11/22 12:31:09;;;;;;;1.77;1.67;;;;;;;;;;5040339;28;20391;-79
2023/11/22 12:33:36;;;;;;;1.65;1.40;;;;;;;;;;5038714;28;20702;-79
2023/11/22 12:36:03;;;;;;;1.75;1.65;;;;;;;;;;5038025;28;21112;-80
2023/11/22 12:38:29;;;;;;;3.75;3.40;;;;;;;;;;5038037;28;20387;-80
2023/11/22 12:40:59;;;;;;;2.83;2.13;;;;;;;;;;5035996;28;20714;-80
2023/11/22 12:43:28;;;;;;;1.60;1.50;;;;;;;;;;5028042;28;20413;-80
2023/11/22 12:46:01;;;;;;;2.00;1.40;;;;;;;;;;5032441;28;20513;-80
2023/11/22 12:48:29;;;;;;;1.60;1.50;;;;;;;;;;5022352;28;20782;-80
2023/11/22 12:50:56;;;;;;;1.88;1.77;;;;;;;;;;5023241;28;20472;-80
2023/11/22 12:53:22;;;;;;;1.90;1.80;;;;;;;;;;5021271;28;20402;-80
2023/11/22 12:55:49;;;;;;;1.83;1.73;;;;;;;;;;5040093;28;20391;-80
2023/11/22 12:58:16;;;;;;;2.08;1.90;;;;;;;;;;5039989;28;20402;-79
2023/11/22 13:00:42;;;;;;;2.10;1.90;;;;;;;;;;5038454;28;20573;-80
2023/11/22 13:03:12;;;;;;;1.85;1.70;;;;;;;;;;5039420;28;20732;-79
2023/11/22 13:05:39;;;;;;;2.90;2.70;;;;;;;;;;5039092;28;20407;-80
2023/11/22 13:08:05;;;;;;;2.35;2.15;;;;;;;;;;5038986;28;20429;-80
2023/11/22 13:10:31;;;;;;;3.30;2.63;;;;;;;;;;5032874;28;20375;-80
2023/11/22 13:12:57;;;;;;;2.93;2.30;;;;;;;;;;5039437;28;20483;-79
2023/11/22 13:15:25;;;;;;;2.78;2.58;;;;;;;;;;5039649;28;20781;-79
2023/11/22 13:17:55;;;;;;;2.88;2.58;;;;;;;;;;5040306;28;20458;-79
2023/11/22 13:20:25;;;;;;;3.43;3.00;;;;;;;;;;5035569;28;21083;-79
2023/11/22 13:22:52;;;;;;;3.00;2.80;;;;;;;;;;5026292;28;20389;-79
2023/11/22 13:25:18;;;;;;;4.00;3.15;;;;;;;;;;5024532;28;20412;-79
2023/11/22 13:27:46;;;;;;;3.70;3.40;;;;;;;;;;5023864;28;20491;-79
2023/11/22 13:30:14;;;;;;;3.17;2.92;;;;;;;;;;5021360;28;20384;-80
2023/11/22 13:32:43;;;;;;;4.07;3.13;;;;;;;;;;5024799;28;20381;-81
2023/11/22 13:35:17;;;;;;;3.45;3.15;;;;;;;;;;5029819;28;20749;-81
2023/11/22 13:37:43;;;;;;;3.63;3.30;;;;;;;;;;5038484;28;20395;-81
2023/11/22 13:40:16;;;;;;;3.42;3.13;;;;;;;;;;5033613;28;20502;-81
2023/11/22 13:42:46;;;;;;;4.80;4.40;;;;;;;;;;5030455;28;20400;-81
2023/11/22 13:45:17;;;;;;;4.18;3.88;;;;;;;;;;5022877;28;20896;-80
2023/11/22 13:47:50;;;;;;;3.55;3.25;;;;;;;;;;5038566;28;20395;-80
2023/11/22 13:50:21;;;;;;;4.57;4.17;;;;;;;;;;5038677;28;20402;-83
2023/11/22 13:52:51;;;;;;;4.00;3.70;;;;;;;;;;5037432;28;20409;-80
2023/11/22 13:55:22;;;;;;;7.13;6.30;;;;;;;;;;5035137;28;20470;-80
2023/11/22 13:57:48;;;;;;;4.60;4.20;;;;;;;;;;5034071;28;20399;-80
2023/11/22 14:00:18;;;;;;;45.57;23.60;;;;;;;;;;5038497;28;20833;-80
2023/11/22 14:02:47;;;;;;;3.83;3.53;;;;;;;;;;5037723;28;20390;-80
2023/11/22 14:05:15;;;;;;;3.87;3.57;;;;;;;;;;5039185;28;20414;-80
2023/11/22 14:07:41;;;;;;;33.13;19.40;;;;;;;;;;5041190;28;20441;-80
2023/11/22 14:10:08;;;;;;;4.50;4.10;;;;;;;;;;5041237;28;20402;-80
2023/11/22 14:12:35;;;;;;;4.25;3.92;;;;;;;;;;5041926;28;20833;-80
2023/11/22 14:15:01;;;;;;;6.05;5.55;;;;;;;;;;5041842;28;20391;-81
2023/11/22 14:17:29;;;;;;;4.95;4.55;;;;;;;;;;5035381;28;20429;-80
2023/11/22 14:19:56;;;;;;;3.33;3.03;;;;;;;;;;5027219;28;20850;-80
2023/11/22 14:22:22;;;;;;;4.28;3.85;;;;;;;;;;5021178;28;20688;-80
2023/11/22 14:24:52;;;;;;;4.20;3.80;;;;;;;;;;5021414;28;20925;-79
2023/11/22 14:27:19;;;;;;;4.20;3.80;;;;;;;;;;5027063;28;20434;-79
2023/11/22 14:29:48;;;;;;;4.53;4.13;;;;;;;;;;5035172;28;20379;-80
2023/11/22 14:32:14;;;;;;;5.47;4.37;;;;;;;;;;5034802;28;20505;-79
2023/11/22 14:34:43;;;;;;;4.78;4.38;;;;;;;;;;5040577;28;20865;-80
2023/11/22 14:37:09;;;;;;;4.40;4.00;;;;;;;;;;5039393;28;20382;-79
2023/11/22 14:39:35;;;;;;;4.20;3.90;;;;;;;;;;5033500;28;20385;-80
2023/11/22 14:42:01;;;;;;;4.35;3.95;;;;;;;;;;5035504;28;20854;-80